createdAt,value
2023-01-19T00:01:47.472Z,2.90
2023-01-19T00:04:17.182Z,2.99
2023-01-19T00:06:47.107Z,3.03
2023-01-19T00:09:16.898Z,2.88
2023-01-19T00:11:46.686Z,2.71
2023-01-19T00:14:16.747Z,2.60
2023-01-19T00:16:46.621Z,2.50
2023-01-19T00:19:16.819Z,2.61
2023-01-19T00:21:46.626Z,2.61
2023-01-19T00:24:16.232Z,2.71
2023-01-19T00:26:46.085Z,2.40
2023-01-19T00:29:16.092Z,2.47
2023-01-19T00:31:46.185Z,2.72
2023-01-19T00:34:16.450Z,2.56
2023-01-19T00:36:46.256Z,2.70
2023-01-19T00:39:16.054Z,2.41
2023-01-19T00:42:03.484Z,2.73
2023-01-19T00:44:33.600Z,2.75
2023-01-19T00:47:05.545Z,2.64
2023-01-19T00:49:35.354Z,2.70
2023-01-19T00:52:07.011Z,2.59
2023-01-19T00:54:36.849Z,2.59
2023-01-19T00:57:06.666Z,2.60
2023-01-19T00:59:36.745Z,2.73
2023-01-19T01:02:08.303Z,2.62
2023-01-19T01:04:38.574Z,2.77
2023-01-19T01:07:08.898Z,2.51
2023-01-19T01:09:38.854Z,2.65
2023-01-19T01:12:09.679Z,2.83
2023-01-19T01:14:39.943Z,2.79
2023-01-19T01:17:11.558Z,2.80
2023-01-19T01:19:42.545Z,2.71
2023-01-19T01:22:12.374Z,2.56
2023-01-19T01:24:42.220Z,2.64
2023-01-19T01:27:12.066Z,2.91
2023-01-19T01:29:43.655Z,2.81
2023-01-19T01:32:17.330Z,2.78
2023-01-19T01:34:47.111Z,2.74
2023-01-19T01:37:16.929Z,2.75
2023-01-19T01:39:46.724Z,2.58
2023-01-19T01:42:19.298Z,2.67
2023-01-19T01:44:55.091Z,2.53
2023-01-19T01:47:25.306Z,2.58
2023-01-19T01:49:58.589Z,2.49
2023-01-19T01:52:30.475Z,2.56
2023-01-19T01:55:03.133Z,2.42
2023-01-19T01:57:33.099Z,2.31
2023-01-19T02:00:04.371Z,2.58
2023-01-19T02:02:53.564Z,2.27
2023-01-19T02:05:34.595Z,2.07
2023-01-19T02:08:36.083Z,1.99
2023-01-19T02:11:24.485Z,2.01
2023-01-19T02:13:54.704Z,2.13
2023-01-19T02:16:24.516Z,2.10
2023-01-19T02:18:54.313Z,2.45
2023-01-19T02:21:27.148Z,2.20
2023-01-19T02:24:00.200Z,2.23
2023-01-19T02:26:32.990Z,2.35
2023-01-19T02:29:05.861Z,2.17
2023-01-19T02:31:38.981Z,2.14
2023-01-19T02:34:15.358Z,2.13
2023-01-19T02:36:50.754Z,2.21
2023-01-19T02:39:23.321Z,2.16
2023-01-19T02:41:56.192Z,2.08
2023-01-19T02:44:27.444Z,1.75
2023-01-19T02:46:57.652Z,1.85
2023-01-19T02:49:30.212Z,1.58
2023-01-19T02:52:01.149Z,1.51
2023-01-19T02:54:50.226Z,1.42
2023-01-19T02:57:34.202Z,1.60
2023-01-19T03:00:10.927Z,1.60
2023-01-19T03:02:44.011Z,1.30
2023-01-19T03:05:20.062Z,1.40
2023-01-19T03:07:50.671Z,1.55
2023-01-19T03:10:58.136Z,1.43
2023-01-19T03:13:42.734Z,1.60
2023-01-19T03:16:33.099Z,1.48
2023-01-19T03:19:11.621Z,1.45
2023-01-19T03:21:44.446Z,1.40
2023-01-19T03:24:16.173Z,1.55
2023-01-19T03:29:35.977Z,1.54
2023-01-19T03:32:09.761Z,1.47
2023-01-19T03:34:42.691Z,1.30
2023-01-19T03:37:14.508Z,1.42
2023-01-19T03:39:44.408Z,1.31
2023-01-19T03:42:17.035Z,1.62
2023-01-19T03:44:49.645Z,1.51
2023-01-19T03:47:20.945Z,1.21
2023-01-19T03:49:52.980Z,1.23
2023-01-19T03:52:35.748Z,1.24
2023-01-19T03:55:07.920Z,1.21
2023-01-19T03:57:38.220Z,1.21
2023-01-19T04:00:10.639Z,1.21
2023-01-19T04:02:42.146Z,1.26
2023-01-19T04:05:11.668Z,1.51
2023-01-19T04:07:41.430Z,1.43
2023-01-19T04:10:12.753Z,1.41
2023-01-19T04:12:42.823Z,1.52
2023-01-19T04:15:12.920Z,1.51
2023-01-19T04:17:43.037Z,1.36
2023-01-19T04:20:14.283Z,1.43
2023-01-19T04:22:44.576Z,1.64
2023-01-19T04:25:14.412Z,1.64
2023-01-19T04:27:44.186Z,1.47
2023-01-19T04:30:15.245Z,1.65
2023-01-19T04:32:45.016Z,1.65
2023-01-19T04:35:14.743Z,1.65
2023-01-19T04:37:45.062Z,1.60
2023-01-19T04:40:16.973Z,1.65
2023-01-19T04:42:47.274Z,1.65
2023-01-19T04:45:17.359Z,1.53
2023-01-19T04:47:47.127Z,1.60
2023-01-19T04:50:17.585Z,1.71
2023-01-19T04:52:48.979Z,1.65
2023-01-19T04:55:19.830Z,1.79
2023-01-19T04:57:49.780Z,1.60
2023-01-19T05:00:20.726Z,1.68
2023-01-19T05:02:50.747Z,1.73
2023-01-19T05:05:20.679Z,1.64
2023-01-19T05:07:50.718Z,1.99
2023-01-19T05:10:20.358Z,1.77
2023-01-19T05:12:50.118Z,1.70
2023-01-19T05:15:19.838Z,1.63
2023-01-19T05:17:49.977Z,1.63
2023-01-19T05:20:19.923Z,1.77
2023-01-19T05:22:54.068Z,1.80
2023-01-19T05:25:23.584Z,1.85
2023-01-19T05:27:53.593Z,1.95
2023-01-19T05:30:23.207Z,1.93
2023-01-19T05:32:52.980Z,1.93
2023-01-19T05:35:35.371Z,1.82
2023-01-19T05:37:55.173Z,1.76
2023-01-19T05:40:24.673Z,1.79
2023-01-19T05:42:54.489Z,1.96
2023-01-19T05:45:24.167Z,1.84
2023-01-19T05:47:55.864Z,1.87
2023-01-19T05:50:25.759Z,1.89
2023-01-19T05:52:55.613Z,2.14
2023-01-19T05:55:25.576Z,1.81
2023-01-19T05:57:55.185Z,2.02
2023-01-19T06:00:26.594Z,2.04
2023-01-19T06:02:56.541Z,1.96
2023-01-19T06:05:26.071Z,2.02
2023-01-19T06:07:57.881Z,2.12
2023-01-19T06:10:27.687Z,2.12
2023-01-19T06:12:57.452Z,2.19
2023-01-19T06:15:27.397Z,2.17
2023-01-19T06:17:57.174Z,2.05
2023-01-19T06:20:27.014Z,2.05
2023-01-19T06:22:59.259Z,2.02
2023-01-19T06:25:29.558Z,2.13
2023-01-19T06:27:59.692Z,1.91
2023-01-19T06:30:29.192Z,2.01
2023-01-19T06:32:59.216Z,1.86
2023-01-19T06:35:29.082Z,1.79
2023-01-19T06:37:58.935Z,1.91
2023-01-19T06:40:28.469Z,1.94
2023-01-19T06:42:58.992Z,1.89
2023-01-19T06:45:28.903Z,1.89
2023-01-19T06:47:58.669Z,1.92
2023-01-19T06:50:28.658Z,1.95
2023-01-19T06:52:58.783Z,1.94
2023-01-19T06:55:28.875Z,2.04
2023-01-19T06:58:01.705Z,2.19
2023-01-19T07:00:31.738Z,2.23
2023-01-19T07:03:02.388Z,2.05
2023-01-19T07:05:32.605Z,2.14
2023-01-19T07:08:03.363Z,2.11
2023-01-19T07:11:26.815Z,2.02
2023-01-19T07:13:05.777Z,2.02
2023-01-19T07:15:35.603Z,2.09
2023-01-19T07:18:08.168Z,1.94
2023-01-19T07:20:39.069Z,2.08
2023-01-19T07:23:09.266Z,1.94
2023-01-19T07:25:39.698Z,1.99
2023-01-19T07:28:12.901Z,2.07
2023-01-19T07:30:46.293Z,2.06
2023-01-19T07:33:16.169Z,2.21
2023-01-19T07:35:49.576Z,2.13
2023-01-19T07:38:20.284Z,2.09
2023-01-19T07:40:50.063Z,2.29
2023-01-19T07:43:19.926Z,2.22
2023-01-19T07:45:50.172Z,2.27
2023-01-19T07:48:20.095Z,2.24
2023-01-19T07:50:49.998Z,2.14
2023-01-19T07:53:20.118Z,2.19
2023-01-19T07:55:53.367Z,2.51
2023-01-19T07:58:23.425Z,2.26
2023-01-19T08:00:53.586Z,2.47
2023-01-19T08:03:23.753Z,2.34
2023-01-19T08:05:54.525Z,2.26
2023-01-19T08:08:24.327Z,2.27
2023-01-19T08:10:53.999Z,2.11
2023-01-19T08:13:23.916Z,2.32
2023-01-19T08:15:55.208Z,2.34
2023-01-19T08:18:24.754Z,2.33
2023-01-19T08:20:54.527Z,2.32
2023-01-19T08:23:24.312Z,2.33
2023-01-19T08:25:54.189Z,2.31
2023-01-19T08:28:24.205Z,2.21
2023-01-19T08:30:56.535Z,2.19
2023-01-19T08:33:26.644Z,2.19
2023-01-19T08:35:56.479Z,2.40
2023-01-19T08:38:26.025Z,2.39
2023-01-19T08:40:55.939Z,2.57
2023-01-19T08:43:25.988Z,2.42
2023-01-19T08:45:56.494Z,2.78
2023-01-19T08:48:26.011Z,2.87
2023-01-19T08:50:55.860Z,3.06
2023-01-19T08:53:26.033Z,2.94
2023-01-19T08:55:59.511Z,3.05
2023-01-19T08:58:29.412Z,3.18
2023-01-19T09:01:03.043Z,3.45
2023-01-19T09:03:32.688Z,3.34
2023-01-19T09:06:03.081Z,3.53
2023-01-19T09:08:32.926Z,3.63
2023-01-19T09:11:02.966Z,3.64
2023-01-19T09:13:32.885Z,3.76
2023-01-19T09:16:04.840Z,3.59
2023-01-19T09:18:35.846Z,3.70
2023-01-19T09:21:05.804Z,3.43
2023-01-19T09:23:35.607Z,3.59
2023-01-19T09:26:07.438Z,3.45
2023-01-19T09:28:38.104Z,3.28
2023-01-19T09:31:09.636Z,3.54
2023-01-19T09:33:39.634Z,3.22
2023-01-19T09:36:11.263Z,3.22
2023-01-19T09:38:41.390Z,3.45
2023-01-19T09:41:16.748Z,3.56
2023-01-19T09:43:49.241Z,3.41
2023-01-19T09:46:24.548Z,3.96
2023-01-19T09:48:57.704Z,4.17
2023-01-19T09:51:30.082Z,4.17
2023-01-19T09:54:22.444Z,4.09
2023-01-19T09:56:53.873Z,4.32
2023-01-19T09:59:29.047Z,4.16
2023-01-19T10:02:22.219Z,4.09
2023-01-19T10:05:02.977Z,4.24
2023-01-19T10:07:44.760Z,4.45
2023-01-19T10:10:28.042Z,4.16
2023-01-19T10:13:17.748Z,4.04
2023-01-19T10:15:53.147Z,4.28
2023-01-19T10:18:29.154Z,4.10
2023-01-19T10:21:13.610Z,4.32
2023-01-19T10:23:58.214Z,4.57
2023-01-19T10:26:32.339Z,4.30
2023-01-19T10:29:21.246Z,4.14
2023-01-19T10:31:53.745Z,4.31
2023-01-19T10:34:24.033Z,4.70
2023-01-19T10:36:56.900Z,4.64
2023-01-19T10:39:26.830Z,4.56
2023-01-19T10:41:58.529Z,4.42
2023-01-19T10:44:31.672Z,4.43
2023-01-19T10:47:02.401Z,4.74
2023-01-19T10:49:38.332Z,4.91
2023-01-19T10:52:09.578Z,4.59
2023-01-19T10:54:39.127Z,4.77
2023-01-19T10:57:12.442Z,4.36
2023-01-19T10:59:51.285Z,4.50
2023-01-19T11:02:29.074Z,4.68
2023-01-19T11:05:04.951Z,4.86
2023-01-19T11:07:35.861Z,5.03
2023-01-19T11:10:20.793Z,4.86
2023-01-19T11:13:10.104Z,4.99
2023-01-19T11:15:45.866Z,4.89
2023-01-19T11:18:25.167Z,5.04
2023-01-19T11:20:58.209Z,5.27
2023-01-19T11:23:35.875Z,5.24
2023-01-19T11:28:51.635Z,5.45
2023-01-19T11:31:31.429Z,5.41
2023-01-19T11:34:06.553Z,4.81
2023-01-19T11:36:37.759Z,5.08
2023-01-19T11:39:28.416Z,4.75
2023-01-19T11:42:03.552Z,4.95
2023-01-19T11:44:39.005Z,4.76
2023-01-19T11:47:17.280Z,4.98
2023-01-19T11:50:01.743Z,4.98
2023-01-19T11:52:46.356Z,5.35
2023-01-19T11:55:24.981Z,5.51
2023-01-19T11:57:55.509Z,5.84
2023-01-19T12:00:31.154Z,5.49
2023-01-19T12:03:03.729Z,5.49
2023-01-19T12:05:36.014Z,6.05
2023-01-19T12:08:09.223Z,6.01
2023-01-19T12:10:43.505Z,5.72
2023-01-19T12:13:22.785Z,5.95
2023-01-19T12:15:58.346Z,5.96
2023-01-19T12:18:31.184Z,5.93
2023-01-19T12:21:03.830Z,5.81
2023-01-19T12:23:58.476Z,5.86
2023-01-19T12:26:33.818Z,6.13
2023-01-19T12:29:09.284Z,6.51
2023-01-19T12:31:40.713Z,6.44
2023-01-19T12:34:29.709Z,6.63
2023-01-19T12:37:05.313Z,6.45
2023-01-19T12:39:35.813Z,6.82
2023-01-19T12:42:18.508Z,6.94
2023-01-19T12:44:49.530Z,6.85
2023-01-19T12:47:21.068Z,6.85
2023-01-19T12:49:54.502Z,7.55
2023-01-19T12:52:33.972Z,7.39
2023-01-19T12:55:19.173Z,7.70
2023-01-19T12:58:09.794Z,7.37
2023-01-19T13:00:44.557Z,6.90
2023-01-19T13:03:29.546Z,6.64
2023-01-19T13:05:59.857Z,6.60
2023-01-19T13:08:48.708Z,6.77
2023-01-19T13:11:20.034Z,6.57
2023-01-19T13:13:52.871Z,6.81
2023-01-19T13:16:27.421Z,6.58
2023-01-19T13:19:05.186Z,6.66
2023-01-19T13:21:39.429Z,6.72
2023-01-19T13:24:11.813Z,6.91
2023-01-19T13:26:53.590Z,7.27
2023-01-19T13:29:38.356Z,8.04
2023-01-19T13:32:19.278Z,8.20
2023-01-19T13:34:59.322Z,8.56
2023-01-19T13:37:32.216Z,8.23
2023-01-19T13:40:03.096Z,7.63
2023-01-19T13:42:36.397Z,7.77
2023-01-19T13:45:34.524Z,7.27
2023-01-19T13:48:09.962Z,7.15
2023-01-19T13:50:39.515Z,6.97
2023-01-19T13:53:21.095Z,6.12
2023-01-19T13:56:08.073Z,5.92
2023-01-19T13:58:36.804Z,6.21
2023-01-19T14:01:06.247Z,5.90
2023-01-19T14:03:36.177Z,5.72
2023-01-19T14:06:07.210Z,5.65
2023-01-19T14:08:37.413Z,5.66
2023-01-19T14:11:07.547Z,5.12
2023-01-19T14:13:39.496Z,5.32
2023-01-19T14:16:18.500Z,5.46
2023-01-19T14:18:49.809Z,5.53
2023-01-19T14:21:19.661Z,5.84
2023-01-19T14:24:08.681Z,6.25
2023-01-19T14:26:52.685Z,6.30
2023-01-19T14:29:32.945Z,6.09
2023-01-19T14:32:06.073Z,6.00
2023-01-19T14:34:44.708Z,5.63
2023-01-19T14:37:20.370Z,5.81
2023-01-19T14:39:58.750Z,5.67
2023-01-19T14:42:31.578Z,5.78
2023-01-19T14:45:03.887Z,5.86
2023-01-19T14:47:39.203Z,5.88
2023-01-19T14:50:26.851Z,5.88
2023-01-19T14:53:24.952Z,6.24
2023-01-19T14:55:57.413Z,6.11
2023-01-19T14:58:29.989Z,5.45
2023-01-19T15:01:00.013Z,5.70
2023-01-19T15:03:44.322Z,5.62
2023-01-19T15:06:04.461Z,5.60
2023-01-19T15:08:37.624Z,5.18
2023-01-19T15:11:22.748Z,4.97
2023-01-19T15:13:53.107Z,4.71
2023-01-19T15:16:27.195Z,4.67
2023-01-19T15:18:57.415Z,4.72
2023-01-19T15:21:27.417Z,4.65
2023-01-19T15:23:58.457Z,4.58
2023-01-19T15:26:28.385Z,4.54
2023-01-19T15:28:58.220Z,4.40
2023-01-19T15:31:28.317Z,4.37
2023-01-19T15:33:58.124Z,4.49
2023-01-19T15:36:28.273Z,4.57
2023-01-19T15:38:58.362Z,4.31
2023-01-19T15:41:32.626Z,4.17
2023-01-19T15:44:03.587Z,4.10
2023-01-19T15:46:33.952Z,4.27
2023-01-19T15:49:05.620Z,4.10
2023-01-19T15:51:35.754Z,4.30
2023-01-19T15:54:05.645Z,4.18
2023-01-19T15:56:35.425Z,4.25
2023-01-19T15:59:05.250Z,4.15
2023-01-19T16:01:36.224Z,4.35
2023-01-19T16:04:09.519Z,4.12
2023-01-19T16:06:39.202Z,4.01
2023-01-19T16:09:09.057Z,3.88
2023-01-19T16:11:38.965Z,3.90
2023-01-19T16:14:10.455Z,3.80
2023-01-19T16:16:42.352Z,3.73
2023-01-19T16:19:15.899Z,3.73
2023-01-19T16:21:45.741Z,3.46
2023-01-19T16:24:15.821Z,3.46
2023-01-19T16:26:45.674Z,3.49
2023-01-19T16:29:15.717Z,3.30
2023-01-19T16:31:46.230Z,3.24
2023-01-19T16:34:18.155Z,3.24
2023-01-19T16:36:47.932Z,3.13
2023-01-19T16:39:18.736Z,3.05
2023-01-19T16:41:48.612Z,3.14
2023-01-19T16:44:19.040Z,2.94
2023-01-19T16:46:51.817Z,2.93
2023-01-19T16:49:24.216Z,3.03
2023-01-19T16:51:58.336Z,2.93
2023-01-19T16:54:30.020Z,2.93
2023-01-19T16:57:00.132Z,2.77
2023-01-19T16:59:30.354Z,2.69
2023-01-19T17:02:00.349Z,2.59
2023-01-19T17:04:29.932Z,2.49
2023-01-19T17:06:59.694Z,2.63
2023-01-19T17:09:29.808Z,2.55
2023-01-19T17:12:00.153Z,2.57
2023-01-19T17:14:30.078Z,2.57
2023-01-19T17:17:02.682Z,2.55
2023-01-19T17:19:32.562Z,2.39
2023-01-19T17:22:02.406Z,2.53
2023-01-19T17:24:32.360Z,2.39
2023-01-19T17:27:02.241Z,2.53
2023-01-19T17:29:31.999Z,2.45
2023-01-19T17:32:02.120Z,2.38
2023-01-19T17:34:31.966Z,2.28
2023-01-19T17:37:03.371Z,2.21
2023-01-19T17:39:33.646Z,2.19
2023-01-19T17:42:03.470Z,2.28
2023-01-19T17:44:33.213Z,2.22
2023-01-19T17:47:03.117Z,2.31
2023-01-19T17:49:33.001Z,2.39
2023-01-19T17:52:02.761Z,2.23
2023-01-19T17:54:32.692Z,2.28
2023-01-19T17:57:02.483Z,2.07
2023-01-19T17:59:32.596Z,2.01
2023-01-19T18:02:02.706Z,2.08
2023-01-19T18:04:32.398Z,2.13
2023-01-19T18:07:02.199Z,2.02
2023-01-19T18:09:32.131Z,2.13
2023-01-19T18:12:01.909Z,2.00
2023-01-19T18:14:31.428Z,1.91
2023-01-19T18:17:01.295Z,1.89
2023-01-19T18:19:31.201Z,1.78
2023-01-19T18:22:01.115Z,1.94
2023-01-19T18:24:30.832Z,1.77
2023-01-19T18:27:00.637Z,1.85
2023-01-19T18:29:30.734Z,1.77
2023-01-19T18:32:00.481Z,1.53
2023-01-19T18:34:30.650Z,1.59
2023-01-19T18:37:00.476Z,1.53
2023-01-19T18:39:32.993Z,1.43
2023-01-19T18:42:02.841Z,1.63
2023-01-19T18:44:32.914Z,1.61
2023-01-19T18:47:02.815Z,1.54
2023-01-19T18:49:33.045Z,1.45
2023-01-19T18:52:03.961Z,1.51
2023-01-19T18:54:34.042Z,1.54
2023-01-19T18:57:03.843Z,1.77
2023-01-19T18:59:33.948Z,1.54
2023-01-19T19:02:05.463Z,1.66
2023-01-19T19:04:35.497Z,1.73
2023-01-19T19:07:05.392Z,1.72
2023-01-19T19:09:36.052Z,1.73
2023-01-19T19:12:06.058Z,1.66
2023-01-19T19:14:36.185Z,1.55
2023-01-19T19:17:06.047Z,1.39
2023-01-19T19:19:36.131Z,1.33
2023-01-19T19:22:06.116Z,1.51
2023-01-19T19:24:36.168Z,1.43
2023-01-19T19:27:06.281Z,1.25
2023-01-19T19:29:36.384Z,1.42
2023-01-19T19:32:06.365Z,1.49
2023-01-19T19:34:36.410Z,1.39
2023-01-19T19:37:06.232Z,1.29
2023-01-19T19:39:38.244Z,1.26
2023-01-19T19:42:08.561Z,1.31
2023-01-19T19:44:38.648Z,1.40
2023-01-19T19:47:08.615Z,1.45
2023-01-19T19:49:39.050Z,1.60
2023-01-19T19:52:08.828Z,1.47
2023-01-19T19:54:39.121Z,1.53
2023-01-19T19:57:08.919Z,1.35
2023-01-19T19:59:39.154Z,1.50
2023-01-19T20:02:12.730Z,1.50
2023-01-19T20:04:44.212Z,1.40
2023-01-19T20:07:14.022Z,1.48
2023-01-19T20:09:45.232Z,1.48
2023-01-19T20:12:15.947Z,1.42
2023-01-19T20:14:45.718Z,1.55
2023-01-19T20:17:15.492Z,1.52
2023-01-19T20:19:47.177Z,1.42
2023-01-19T20:22:18.589Z,1.49
2023-01-19T20:24:48.590Z,1.45
2023-01-19T20:27:18.969Z,1.54
2023-01-19T20:29:54.434Z,1.48
2023-01-19T20:32:25.137Z,1.48
2023-01-19T20:34:55.005Z,1.63
2023-01-19T20:37:24.815Z,1.50
2023-01-19T20:39:54.743Z,1.67
2023-01-19T20:42:24.560Z,1.48
2023-01-19T20:44:55.605Z,1.58
2023-01-19T20:47:25.879Z,1.68
2023-01-19T20:49:55.672Z,1.79
2023-01-19T20:52:25.460Z,1.55
2023-01-19T20:54:55.393Z,1.59
2023-01-19T20:57:25.335Z,1.69
2023-01-19T20:59:55.104Z,2.01
2023-01-19T21:02:28.414Z,1.80
2023-01-19T21:04:57.566Z,1.91
2023-01-19T21:07:27.538Z,1.98
2023-01-19T21:09:57.470Z,1.99
2023-01-19T21:12:27.232Z,2.16
2023-01-19T21:14:57.027Z,1.93
2023-01-19T21:17:26.870Z,2.17
2023-01-19T21:19:56.697Z,2.24
2023-01-19T21:22:26.536Z,2.34
2023-01-19T21:24:56.375Z,2.24
2023-01-19T21:27:26.189Z,2.11
2023-01-19T21:29:55.951Z,2.12
2023-01-19T21:32:25.854Z,2.24
2023-01-19T21:34:55.973Z,2.15
2023-01-19T21:37:26.199Z,2.14
2023-01-19T21:39:55.957Z,2.10
2023-01-19T21:42:25.562Z,2.13
2023-01-19T21:44:55.345Z,2.04
2023-01-19T21:47:25.122Z,1.96
2023-01-19T21:49:54.891Z,2.17
2023-01-19T21:52:24.744Z,2.10
2023-01-19T21:54:54.589Z,2.04
2023-01-19T21:57:24.414Z,2.33
2023-01-19T21:59:54.168Z,2.25
2023-01-19T22:02:37.883Z,2.30
2023-01-19T22:04:55.486Z,2.08
2023-01-19T22:07:25.384Z,2.14
2023-01-19T22:09:55.140Z,2.14
2023-01-19T22:12:25.001Z,2.28
2023-01-19T22:14:55.222Z,2.23
2023-01-19T22:17:25.087Z,2.20
2023-01-19T22:19:55.231Z,2.15
2023-01-19T22:22:24.729Z,2.19
2023-01-19T22:24:54.550Z,2.08
2023-01-19T22:27:24.702Z,2.20
2023-01-19T22:29:54.563Z,2.12
2023-01-19T22:32:24.419Z,2.16
2023-01-19T22:34:54.188Z,2.02
2023-01-19T22:37:24.019Z,1.97
2023-01-19T22:39:54.523Z,2.20
2023-01-19T22:42:24.285Z,2.20
2023-01-19T22:44:54.064Z,2.27
2023-01-19T22:47:23.864Z,2.14
2023-01-19T22:49:53.597Z,2.12
2023-01-19T22:52:23.534Z,2.26
2023-01-19T22:54:55.928Z,2.26
2023-01-19T22:57:25.916Z,2.38
2023-01-19T22:59:55.679Z,2.19
2023-01-19T23:02:25.420Z,2.32
2023-01-19T23:04:55.185Z,1.96
2023-01-19T23:07:25.013Z,1.91
2023-01-19T23:09:54.847Z,1.92
2023-01-19T23:12:24.390Z,1.99
2023-01-19T23:14:54.168Z,2.06
2023-01-19T23:17:23.968Z,1.92
2023-01-19T23:19:54.032Z,1.84
2023-01-19T23:22:23.478Z,2.16
2023-01-19T23:24:53.262Z,2.12
2023-01-19T23:27:23.084Z,2.13
2023-01-19T23:29:54.328Z,2.01
2023-01-19T23:32:24.270Z,1.83
2023-01-19T23:34:54.311Z,1.86
2023-01-19T23:37:24.165Z,1.50
2023-01-19T23:39:54.324Z,1.90
2023-01-19T23:42:24.183Z,1.82
2023-01-19T23:44:54.008Z,1.85
2023-01-19T23:47:24.165Z,1.78
2023-01-19T23:49:53.980Z,1.83
2023-01-19T23:52:24.166Z,1.72
2023-01-19T23:54:53.991Z,1.78
2023-01-19T23:57:23.741Z,1.96
2023-01-19T23:59:53.539Z,2.10
